sensor_id;sensor_type;location;lat;lon;timestamp;pressure;altitude;pressure_sealevel;temperature;humidity
78990;BME280;68390;52.130;21.218;2023-05-10T00:01:46;101198.59;;;3.40;71.94
78990;BME280;68390;52.130;21.218;2023-05-10T00:04:11;101196.00;;;3.38;71.32
78990;BME280;68390;52.130;21.218;2023-05-10T00:06:37;101199.88;;;3.34;71.65
78990;BME280;68390;52.130;21.218;2023-05-10T00:09:02;101194.44;;;3.34;72.16
78990;BME280;68390;52.130;21.218;2023-05-10T00:11:28;101193.81;;;3.30;71.77
78990;BME280;68390;52.130;21.218;2023-05-10T00:13:53;101187.50;;;3.30;71.96
78990;BME280;68390;52.130;21.218;2023-05-10T00:16:19;101193.13;;;3.27;72.33
78990;BME280;68390;52.130;21.218;2023-05-10T00:18:45;101188.56;;;3.27;71.45
78990;BME280;68390;52.130;21.218;2023-05-10T00:21:10;101186.16;;;3.23;72.19
78990;BME280;68390;52.130;21.218;2023-05-10T00:23:35;101186.28;;;3.21;72.20
78990;BME280;68390;52.130;21.218;2023-05-10T00:26:01;101183.69;;;3.20;72.20
78990;BME280;68390;52.130;21.218;2023-05-10T00:28:27;101181.94;;;3.19;72.74
78990;BME280;68390;52.130;21.218;2023-05-10T00:30:53;101174.88;;;3.16;72.83
78990;BME280;68390;52.130;21.218;2023-05-10T00:33:19;101182.13;;;3.16;72.61
78990;BME280;68390;52.130;21.218;2023-05-10T00:35:44;101165.97;;;3.14;73.41
78990;BME280;68390;52.130;21.218;2023-05-10T00:38:10;101174.09;;;3.14;72.95
78990;BME280;68390;52.130;21.218;2023-05-10T00:40:36;101165.97;;;3.14;72.18
78990;BME280;68390;52.130;21.218;2023-05-10T00:43:02;101164.97;;;3.15;72.39
78990;BME280;68390;52.130;21.218;2023-05-10T00:45:29;101165.09;;;3.14;72.14
78990;BME280;68390;52.130;21.218;2023-05-10T00:47:55;101166.72;;;3.16;72.25
78990;BME280;68390;52.130;21.218;2023-05-10T00:50:22;101162.16;;;3.17;72.11
78990;BME280;68390;52.130;21.218;2023-05-10T00:52:48;101159.34;;;3.18;71.56
78990;BME280;68390;52.130;21.218;2023-05-10T00:55:14;101166.44;;;3.21;71.81
78990;BME280;68390;52.130;21.218;2023-05-10T00:57:40;101163.72;;;3.21;71.54
78990;BME280;68390;52.130;21.218;2023-05-10T01:00:07;101166.28;;;3.22;71.27
78990;BME280;68390;52.130;21.218;2023-05-10T01:02:34;101162.50;;;3.25;71.43
78990;BME280;68390;52.130;21.218;2023-05-10T01:05:01;101159.69;;;3.26;70.99
78990;BME280;68390;52.130;21.218;2023-05-10T01:07:28;101153.19;;;3.29;70.82
78990;BME280;68390;52.130;21.218;2023-05-10T01:09:54;101150.47;;;3.29;70.20
78990;BME280;68390;52.130;21.218;2023-05-10T01:12:20;101150.16;;;3.33;70.86
78990;BME280;68390;52.130;21.218;2023-05-10T01:14:46;101152.56;;;3.38;71.67
78990;BME280;68390;52.130;21.218;2023-05-10T01:17:12;101155.16;;;3.40;70.32
78990;BME280;68390;52.130;21.218;2023-05-10T01:19:38;101149.63;;;3.41;69.34
78990;BME280;68390;52.130;21.218;2023-05-10T01:22:39;101151.91;;;3.47;68.75
78990;BME280;68390;52.130;21.218;2023-05-10T01:35:55;101146.94;;;3.66;65.72
78990;BME280;68390;52.130;21.218;2023-05-10T01:41:12;101148.13;;;3.75;66.29
78990;BME280;68390;52.130;21.218;2023-05-10T01:46:35;101146.63;;;3.84;65.49
78990;BME280;68390;52.130;21.218;2023-05-10T01:49:03;101152.91;;;3.84;65.40
78990;BME280;68390;52.130;21.218;2023-05-10T01:51:37;101147.34;;;3.86;64.67
78990;BME280;68390;52.130;21.218;2023-05-10T01:54:05;101139.22;;;3.86;63.46
78990;BME280;68390;52.130;21.218;2023-05-10T01:56:33;101143.75;;;3.85;64.71
78990;BME280;68390;52.130;21.218;2023-05-10T01:59:00;101137.47;;;3.85;63.88
78990;BME280;68390;52.130;21.218;2023-05-10T02:01:31;101138.47;;;3.84;64.97
78990;BME280;68390;52.130;21.218;2023-05-10T02:03:59;101143.03;;;3.83;64.44
78990;BME280;68390;52.130;21.218;2023-05-10T02:06:26;101134.00;;;3.83;64.37
78990;BME280;68390;52.130;21.218;2023-05-10T02:08:52;101135.97;;;3.81;63.89
78990;BME280;68390;52.130;21.218;2023-05-10T02:11:19;101138.47;;;3.84;64.29
78990;BME280;68390;52.130;21.218;2023-05-10T02:13:47;101137.47;;;3.85;64.41
78990;BME280;68390;52.130;21.218;2023-05-10T02:16:16;101132.16;;;3.83;63.90
78990;BME280;68390;52.130;21.218;2023-05-10T02:18:42;101120.63;;;3.80;63.65
78990;BME280;68390;52.130;21.218;2023-05-10T02:21:09;101125.09;;;3.81;64.04
78990;BME280;68390;52.130;21.218;2023-05-10T02:23:36;101129.66;;;3.80;63.87
78990;BME280;68390;52.130;21.218;2023-05-10T02:26:03;101127.03;;;3.79;64.02
78990;BME280;68390;52.130;21.218;2023-05-10T02:28:31;101131.59;;;3.78;64.34
78990;BME280;68390;52.130;21.218;2023-05-10T02:30:57;101134.53;;;3.75;64.79
78990;BME280;68390;52.130;21.218;2023-05-10T02:33:23;101136.28;;;3.76;65.09
78990;BME280;68390;52.130;21.218;2023-05-10T02:35:50;101128.47;;;3.72;64.47
78990;BME280;68390;52.130;21.218;2023-05-10T02:38:17;101127.59;;;3.71;64.56
78990;BME280;68390;52.130;21.218;2023-05-10T02:40:44;101128.69;;;3.68;65.06
78990;BME280;68390;52.130;21.218;2023-05-10T02:43:12;101134.13;;;3.68;64.93
78990;BME280;68390;52.130;21.218;2023-05-10T02:45:40;101134.31;;;3.65;65.23
78990;BME280;68390;52.130;21.218;2023-05-10T02:48:06;101138.00;;;3.64;65.25
78990;BME280;68390;52.130;21.218;2023-05-10T02:50:33;101132.06;;;3.59;66.08
78990;BME280;68390;52.130;21.218;2023-05-10T02:53:08;101129.53;;;3.56;66.72
78990;BME280;68390;52.130;21.218;2023-05-10T02:55:38;101139.63;;;3.54;66.40
78990;BME280;68390;52.130;21.218;2023-05-10T02:58:05;101132.47;;;3.53;67.57
78990;BME280;68390;52.130;21.218;2023-05-10T03:00:31;101132.69;;;3.50;67.29
78990;BME280;68390;52.130;21.218;2023-05-10T03:02:57;101131.06;;;3.48;67.23
78990;BME280;68390;52.130;21.218;2023-05-10T03:05:22;101136.50;;;3.48;66.63
78990;BME280;68390;52.130;21.218;2023-05-10T03:07:48;101138.53;;;3.44;67.53
78990;BME280;68390;52.130;21.218;2023-05-10T03:10:13;101129.75;;;3.41;67.37
78990;BME280;68390;52.130;21.218;2023-05-10T03:18:47;101144.63;;;3.35;68.63
78990;BME280;68390;52.130;21.218;2023-05-10T03:21:17;101147.13;;;3.38;68.50
78990;BME280;68390;52.130;21.218;2023-05-10T03:24:13;101141.69;;;3.38;69.08
78990;BME280;68390;52.130;21.218;2023-05-10T03:26:43;101136.25;;;3.38;68.88
78990;BME280;68390;52.130;21.218;2023-05-10T03:29:10;101136.38;;;3.37;69.21
78990;BME280;68390;52.130;21.218;2023-05-10T03:31:38;101132.00;;;3.34;69.48
78990;BME280;68390;52.130;21.218;2023-05-10T03:34:03;101134.72;;;3.34;68.90
78990;BME280;68390;52.130;21.218;2023-05-10T03:36:29;101139.28;;;3.33;69.13
78990;BME280;68390;52.130;21.218;2023-05-10T03:38:54;101134.72;;;3.34;69.73
78990;BME280;68390;52.130;21.218;2023-05-10T03:41:19;101130.16;;;3.35;69.64
78990;BME280;68390;52.130;21.218;2023-05-10T03:43:45;101130.84;;;3.38;68.75
78990;BME280;68390;52.130;21.218;2023-05-10T03:46:11;101130.50;;;3.43;69.38
78990;BME280;68390;52.130;21.218;2023-05-10T03:48:36;101138.13;;;3.50;68.92
78990;BME280;68390;52.130;21.218;2023-05-10T03:51:02;101126.19;;;3.53;70.97
78990;BME280;68390;52.130;21.218;2023-05-10T03:53:27;101128.56;;;3.57;69.79
78990;BME280;68390;52.130;21.218;2023-05-10T03:55:53;101124.44;;;3.64;69.61
78990;BME280;68390;52.130;21.218;2023-05-10T03:58:18;101119.56;;;3.69;69.75
78990;BME280;68390;52.130;21.218;2023-05-10T04:00:44;101139.44;;;3.83;69.24
78990;BME280;68390;52.130;21.218;2023-05-10T04:03:11;101129.97;;;3.88;67.83
78990;BME280;68390;52.130;21.218;2023-05-10T04:05:37;101141.25;;;3.95;67.44
78990;BME280;68390;52.130;21.218;2023-05-10T04:08:03;101128.00;;;4.03;67.74
78990;BME280;68390;52.130;21.218;2023-05-10T04:10:28;101129.50;;;4.07;67.09
78990;BME280;68390;52.130;21.218;2023-05-10T04:12:54;101129.97;;;4.14;67.16
78990;BME280;68390;52.130;21.218;2023-05-10T04:15:19;101138.53;;;4.20;66.13
78990;BME280;68390;52.130;21.218;2023-05-10T04:17:45;101136.00;;;4.30;66.74
78990;BME280;68390;52.130;21.218;2023-05-10T04:20:11;101131.63;;;4.40;66.51
78990;BME280;68390;52.130;21.218;2023-05-10T04:22:37;101130.19;;;4.47;65.06
78990;BME280;68390;52.130;21.218;2023-05-10T04:25:03;101136.13;;;4.65;64.63
78990;BME280;68390;52.130;21.218;2023-05-10T04:27:28;101137.38;;;4.72;64.21
78990;BME280;68390;52.130;21.218;2023-05-10T04:29:54;101137.56;;;4.82;63.29
78990;BME280;68390;52.130;21.218;2023-05-10T04:32:19;101127.94;;;4.89;63.93
78990;BME280;68390;52.130;21.218;2023-05-10T04:34:45;101132.72;;;4.98;62.62
78990;BME280;68390;52.130;21.218;2023-05-10T04:37:10;101136.75;;;5.16;63.23
78990;BME280;68390;52.130;21.218;2023-05-10T04:39:36;101139.63;;;5.26;62.34
78990;BME280;68390;52.130;21.218;2023-05-10T04:42:03;101142.28;;;5.38;62.30
78990;BME280;68390;52.130;21.218;2023-05-10T04:44:28;101145.75;;;5.51;60.44
78990;BME280;68390;52.130;21.218;2023-05-10T04:46:55;101141.19;;;5.63;60.72
78990;BME280;68390;52.130;21.218;2023-05-10T04:49:20;101141.09;;;5.76;60.90
78990;BME280;68390;52.130;21.218;2023-05-10T04:51:46;101140.16;;;5.88;59.94
78990;BME280;68390;52.130;21.218;2023-05-10T04:54:11;101142.53;;;6.04;57.88
78990;BME280;68390;52.130;21.218;2023-05-10T04:56:37;101133.13;;;6.19;57.87
78990;BME280;68390;52.130;21.218;2023-05-10T04:59:02;101134.31;;;6.48;57.97
78990;BME280;68390;52.130;21.218;2023-05-10T05:01:28;101136.38;;;6.78;55.80
78990;BME280;68390;52.130;21.218;2023-05-10T05:03:53;101142.13;;;6.96;56.51
78990;BME280;68390;52.130;21.218;2023-05-10T05:06:19;101141.84;;;7.10;56.10
78990;BME280;68390;52.130;21.218;2023-05-10T05:08:46;101148.00;;;7.23;55.67
78990;BME280;68390;52.130;21.218;2023-05-10T05:11:11;101140.75;;;7.33;56.30
78990;BME280;68390;52.130;21.218;2023-05-10T05:13:36;101144.44;;;7.44;55.44
78990;BME280;68390;52.130;21.218;2023-05-10T05:16:02;101133.38;;;7.66;54.03
78990;BME280;68390;52.130;21.218;2023-05-10T05:18:28;101143.16;;;7.89;54.97
78990;BME280;68390;52.130;21.218;2023-05-10T05:20:53;101143.41;;;8.07;52.05
78990;BME280;68390;52.130;21.218;2023-05-10T05:23:19;101143.56;;;8.36;51.83
78990;BME280;68390;52.130;21.218;2023-05-10T05:25:46;101137.00;;;8.48;51.52
78990;BME280;68390;52.130;21.218;2023-05-10T05:28:11;101139.81;;;8.87;50.60
78990;BME280;68390;52.130;21.218;2023-05-10T05:30:37;101142.19;;;9.20;50.58
78990;BME280;68390;52.130;21.218;2023-05-10T05:33:02;101120.53;;;9.65;49.24
78990;BME280;68390;52.130;21.218;2023-05-10T05:35:28;101133.28;;;10.03;47.76
78990;BME280;68390;52.130;21.218;2023-05-10T05:37:53;101139.31;;;10.16;47.83
78990;BME280;68390;52.130;21.218;2023-05-10T05:40:19;101139.59;;;10.23;48.29
78990;BME280;68390;52.130;21.218;2023-05-10T05:42:45;101131.97;;;10.44;46.34
78990;BME280;68390;52.130;21.218;2023-05-10T05:45:11;101134.63;;;10.63;44.92
78990;BME280;68390;52.130;21.218;2023-05-10T05:47:38;101138.22;;;10.91;45.45
78990;BME280;68390;52.130;21.218;2023-05-10T05:50:04;101129.81;;;10.93;45.90
78990;BME280;68390;52.130;21.218;2023-05-10T05:52:30;101131.63;;;10.84;43.17
78990;BME280;68390;52.130;21.218;2023-05-10T05:54:55;101141.88;;;10.82;44.60
78990;BME280;68390;52.130;21.218;2023-05-10T05:57:20;101141.28;;;10.88;45.47
78990;BME280;68390;52.130;21.218;2023-05-10T05:59:46;101136.69;;;11.07;44.38
78990;BME280;68390;52.130;21.218;2023-05-10T06:02:12;101143.13;;;11.15;43.40
78990;BME280;68390;52.130;21.218;2023-05-10T06:04:38;101143.41;;;11.12;44.47
78990;BME280;68390;52.130;21.218;2023-05-10T06:07:03;101147.38;;;11.10;45.44
78990;BME280;68390;52.130;21.218;2023-05-10T06:09:29;101146.50;;;11.09;44.79
78990;BME280;68390;52.130;21.218;2023-05-10T06:11:54;101143.75;;;11.09;44.48
78990;BME280;68390;52.130;21.218;2023-05-10T06:14:20;101142.56;;;11.12;46.06
78990;BME280;68390;52.130;21.218;2023-05-10T06:16:46;101139.81;;;11.12;48.23
78990;BME280;68390;52.130;21.218;2023-05-10T06:19:11;101140.22;;;11.17;44.78
78990;BME280;68390;52.130;21.218;2023-05-10T06:21:37;101139.72;;;11.21;43.91
78990;BME280;68390;52.130;21.218;2023-05-10T06:24:02;101138.97;;;11.29;44.83
78990;BME280;68390;52.130;21.218;2023-05-10T06:26:28;101144.38;;;11.38;42.86
78990;BME280;68390;52.130;21.218;2023-05-10T06:28:54;101137.94;;;11.48;44.13
78990;BME280;68390;52.130;21.218;2023-05-10T06:31:19;101138.72;;;11.58;44.54
78990;BME280;68390;52.130;21.218;2023-05-10T06:33:45;101147.56;;;11.69;42.75
78990;BME280;68390;52.130;21.218;2023-05-10T06:36:10;101138.75;;;11.84;44.55
78990;BME280;68390;52.130;21.218;2023-05-10T06:38:36;101147.09;;;11.92;44.46
78990;BME280;68390;52.130;21.218;2023-05-10T06:41:01;101131.66;;;11.99;43.25
78990;BME280;68390;52.130;21.218;2023-05-10T06:43:27;101133.94;;;12.03;42.58
78990;BME280;68390;52.130;21.218;2023-05-10T06:45:54;101136.75;;;12.11;41.77
78990;BME280;68390;52.130;21.218;2023-05-10T06:48:19;101132.97;;;12.12;42.16
78990;BME280;68390;52.130;21.218;2023-05-10T06:50:44;101123.88;;;12.20;41.92
78990;BME280;68390;52.130;21.218;2023-05-10T06:53:10;101130.84;;;12.32;40.81
78990;BME280;68390;52.130;21.218;2023-05-10T06:55:36;101123.47;;;12.41;40.48
78990;BME280;68390;52.130;21.218;2023-05-10T06:58:02;101134.03;;;12.54;41.20
78990;BME280;68390;52.130;21.218;2023-05-10T07:00:27;101132.03;;;12.64;39.91
78990;BME280;68390;52.130;21.218;2023-05-10T07:02:53;101131.03;;;12.73;38.46
78990;BME280;68390;52.130;21.218;2023-05-10T07:05:18;101116.56;;;12.79;38.01
78990;BME280;68390;52.130;21.218;2023-05-10T07:07:45;101126.78;;;12.86;35.67
78990;BME280;68390;52.130;21.218;2023-05-10T07:10:10;101125.94;;;12.94;34.90
78990;BME280;68390;52.130;21.218;2023-05-10T07:12:35;101127.66;;;13.03;34.93
78990;BME280;68390;52.130;21.218;2023-05-10T07:15:01;101123.75;;;13.14;37.02
78990;BME280;68390;52.130;21.218;2023-05-10T07:17:26;101122.75;;;13.23;34.40
78990;BME280;68390;52.130;21.218;2023-05-10T07:19:52;101123.97;;;13.29;34.25
78990;BME280;68390;52.130;21.218;2023-05-10T07:22:17;101115.00;;;13.35;35.55
78990;BME280;68390;52.130;21.218;2023-05-10T07:24:44;101120.34;;;13.44;33.01
78990;BME280;68390;52.130;21.218;2023-05-10T07:27:09;101113.97;;;13.52;34.29
78990;BME280;68390;52.130;21.218;2023-05-10T07:29:35;101119.47;;;13.60;34.84
78990;BME280;68390;52.130;21.218;2023-05-10T07:32:01;101121.91;;;13.63;33.08
78990;BME280;68390;52.130;21.218;2023-05-10T07:34:27;101116.75;;;13.68;33.96
78990;BME280;68390;52.130;21.218;2023-05-10T07:36:54;101139.50;;;13.78;30.62
78990;BME280;68390;52.130;21.218;2023-05-10T07:39:19;101121.22;;;13.77;28.48
78990;BME280;68390;52.130;21.218;2023-05-10T07:41:45;101127.59;;;13.78;30.06
78990;BME280;68390;52.130;21.218;2023-05-10T07:44:11;101118.44;;;13.85;31.01
78990;BME280;68390;52.130;21.218;2023-05-10T07:46:37;101121.34;;;13.92;31.09
78990;BME280;68390;52.130;21.218;2023-05-10T07:49:02;101130.16;;;14.04;32.01
78990;BME280;68390;52.130;21.218;2023-05-10T07:51:28;101124.25;;;14.15;32.25
78990;BME280;68390;52.130;21.218;2023-05-10T07:53:53;101113.22;;;14.15;29.83
78990;BME280;68390;52.130;21.218;2023-05-10T07:56:22;101126.50;;;14.19;29.83
78990;BME280;68390;52.130;21.218;2023-05-10T07:58:48;101114.25;;;14.22;29.23
78990;BME280;68390;52.130;21.218;2023-05-10T08:01:14;101120.09;;;14.27;30.26
78990;BME280;68390;52.130;21.218;2023-05-10T08:03:39;101114.72;;;14.33;30.08
78990;BME280;68390;52.130;21.218;2023-05-10T08:06:05;101107.97;;;14.44;32.20
78990;BME280;68390;52.130;21.218;2023-05-10T08:08:31;101108.97;;;14.59;30.01
78990;BME280;68390;52.130;21.218;2023-05-10T08:10:56;101107.19;;;14.66;31.94
78990;BME280;68390;52.130;21.218;2023-05-10T08:13:21;101116.63;;;14.80;31.29
78990;BME280;68390;52.130;21.218;2023-05-10T08:15:47;101108.47;;;14.87;29.40
78990;BME280;68390;52.130;21.218;2023-05-10T08:18:13;101099.13;;;14.88;28.66
78990;BME280;68390;52.130;21.218;2023-05-10T08:20:38;101114.00;;;14.87;28.32
78990;BME280;68390;52.130;21.218;2023-05-10T08:23:04;101095.34;;;14.89;28.70
78990;BME280;68390;52.130;21.218;2023-05-10T08:25:29;101105.13;;;14.99;29.39
78990;BME280;68390;52.130;21.218;2023-05-10T08:27:55;101104.53;;;15.12;28.40
78990;BME280;68390;52.130;21.218;2023-05-10T08:30:20;101106.50;;;15.26;30.21
78990;BME280;68390;52.130;21.218;2023-05-10T08:32:46;101098.63;;;15.38;28.04
78990;BME280;68390;52.130;21.218;2023-05-10T08:35:11;101098.19;;;15.49;30.46
78990;BME280;68390;52.130;21.218;2023-05-10T08:37:37;101100.19;;;15.63;28.01
78990;BME280;68390;52.130;21.218;2023-05-10T08:40:02;101098.31;;;15.78;28.64
78990;BME280;68390;52.130;21.218;2023-05-10T08:42:30;101115.06;;;15.85;27.99
78990;BME280;68390;52.130;21.218;2023-05-10T08:45:00;101118.50;;;15.87;26.07
78990;BME280;68390;52.130;21.218;2023-05-10T08:47:27;101103.97;;;15.85;25.64
78990;BME280;68390;52.130;21.218;2023-05-10T08:49:53;101118.97;;;15.91;26.56
78990;BME280;68390;52.130;21.218;2023-05-10T08:52:20;101113.66;;;16.04;27.21
78990;BME280;68390;52.130;21.218;2023-05-10T08:54:47;101099.34;;;16.15;28.45
78990;BME280;68390;52.130;21.218;2023-05-10T08:57:12;101096.75;;;16.13;26.90
78990;BME280;68390;52.130;21.218;2023-05-10T08:59:38;101117.13;;;16.21;27.07
78990;BME280;68390;52.130;21.218;2023-05-10T09:02:05;101108.44;;;16.09;27.73
78990;BME280;68390;52.130;21.218;2023-05-10T09:04:31;101123.50;;;16.06;26.62
78990;BME280;68390;52.130;21.218;2023-05-10T09:06:57;101112.81;;;16.03;28.11
78990;BME280;68390;52.130;21.218;2023-05-10T09:09:23;101092.94;;;16.14;27.20
78990;BME280;68390;52.130;21.218;2023-05-10T09:11:51;101085.56;;;16.22;27.88
78990;BME280;68390;52.130;21.218;2023-05-10T09:14:17;101082.81;;;16.22;26.47
78990;BME280;68390;52.130;21.218;2023-05-10T09:16:43;101086.66;;;16.35;27.80
78990;BME280;68390;52.130;21.218;2023-05-10T09:19:10;101094.09;;;16.35;27.50
78990;BME280;68390;52.130;21.218;2023-05-10T09:21:35;101085.88;;;16.41;27.40
78990;BME280;68390;52.130;21.218;2023-05-10T09:24:06;101080.44;;;16.48;25.96
78990;BME280;68390;52.130;21.218;2023-05-10T09:26:32;101080.53;;;16.40;25.51
78990;BME280;68390;52.130;21.218;2023-05-10T09:28:59;101087.03;;;16.47;27.30
78990;BME280;68390;52.130;21.218;2023-05-10T09:31:43;101078.72;;;16.47;26.75
78990;BME280;68390;52.130;21.218;2023-05-10T09:34:10;101076.63;;;16.49;25.51
78990;BME280;68390;52.130;21.218;2023-05-10T09:36:35;101081.47;;;16.47;25.78
78990;BME280;68390;52.130;21.218;2023-05-10T09:39:01;101084.81;;;16.57;26.73
78990;BME280;68390;52.130;21.218;2023-05-10T09:41:27;101086.53;;;16.73;27.80
78990;BME280;68390;52.130;21.218;2023-05-10T09:43:55;101081.75;;;16.81;25.79
78990;BME280;68390;52.130;21.218;2023-05-10T09:46:21;101085.00;;;16.85;26.86
78990;BME280;68390;52.130;21.218;2023-05-10T09:48:48;101072.66;;;16.87;27.50
78990;BME280;68390;52.130;21.218;2023-05-10T09:51:20;101077.03;;;16.82;24.24
78990;BME280;68390;52.130;21.218;2023-05-10T09:53:46;101079.38;;;16.78;26.49
78990;BME280;68390;52.130;21.218;2023-05-10T09:56:11;101085.38;;;16.82;28.03
78990;BME280;68390;52.130;21.218;2023-05-10T09:58:37;101084.41;;;16.90;26.65
78990;BME280;68390;52.130;21.218;2023-05-10T10:01:03;101081.75;;;16.81;25.29
78990;BME280;68390;52.130;21.218;2023-05-10T10:03:29;101061.13;;;16.69;24.04
78990;BME280;68390;52.130;21.218;2023-05-10T10:05:55;101073.44;;;16.81;26.63
78990;BME280;68390;52.130;21.218;2023-05-10T10:08:21;101072.09;;;16.77;25.26
78990;BME280;68390;52.130;21.218;2023-05-10T10:10:46;101067.22;;;16.79;24.49
78990;BME280;68390;52.130;21.218;2023-05-10T10:13:12;101068.31;;;17.00;25.60
78990;BME280;68390;52.130;21.218;2023-05-10T10:15:38;101070.78;;;17.09;25.26
78990;BME280;68390;52.130;21.218;2023-05-10T10:18:04;101073.41;;;17.17;25.87
78990;BME280;68390;52.130;21.218;2023-05-10T10:20:30;101073.81;;;17.14;25.04
78990;BME280;68390;52.130;21.218;2023-05-10T10:22:56;101069.31;;;17.13;24.57
78990;BME280;68390;52.130;21.218;2023-05-10T10:25:21;101059.34;;;17.19;25.81
78990;BME280;68390;52.130;21.218;2023-05-10T10:30:39;101049.59;;;17.23;25.02
78990;BME280;68390;52.130;21.218;2023-05-10T10:36:10;101038.88;;;17.20;24.64
78990;BME280;68390;52.130;21.218;2023-05-10T10:41:10;101046.47;;;17.33;23.84
78990;BME280;68390;52.130;21.218;2023-05-10T10:43:37;101030.00;;;17.31;23.40
78990;BME280;68390;52.130;21.218;2023-05-10T10:46:16;101036.75;;;17.43;24.67
78990;BME280;68390;52.130;21.218;2023-05-10T10:49:09;101030.66;;;17.54;25.66
78990;BME280;68390;52.130;21.218;2023-05-10T10:51:38;101030.56;;;17.48;24.50
78990;BME280;68390;52.130;21.218;2023-05-10T10:54:10;101021.66;;;17.52;26.15
78990;BME280;68390;52.130;21.218;2023-05-10T10:56:36;101017.81;;;17.53;25.36
78990;BME280;68390;52.130;21.218;2023-05-10T10:59:01;101022.56;;;17.59;26.79
78990;BME280;68390;52.130;21.218;2023-05-10T11:01:35;101026.28;;;17.67;28.88
78990;BME280;68390;52.130;21.218;2023-05-10T11:06:29;101026.41;;;17.58;25.29
78990;BME280;68390;52.130;21.218;2023-05-10T11:08:57;101036.94;;;17.63;25.97
78990;BME280;68390;52.130;21.218;2023-05-10T11:11:23;101025.66;;;17.65;26.09
78990;BME280;68390;52.130;21.218;2023-05-10T11:13:48;101024.69;;;17.57;24.92
78990;BME280;68390;52.130;21.218;2023-05-10T11:19:03;101019.00;;;17.44;25.95
78990;BME280;68390;52.130;21.218;2023-05-10T11:21:32;101022.19;;;17.41;25.65
78990;BME280;68390;52.130;21.218;2023-05-10T11:23:59;101018.03;;;17.52;25.27
78990;BME280;68390;52.130;21.218;2023-05-10T11:26:29;101017.81;;;17.53;24.67
78990;BME280;68390;52.130;21.218;2023-05-10T11:28:55;101013.72;;;17.49;24.51
78990;BME280;68390;52.130;21.218;2023-05-10T11:31:22;101005.59;;;17.48;24.02
78990;BME280;68390;52.130;21.218;2023-05-10T11:33:56;101012.66;;;17.50;25.93
78990;BME280;68390;52.130;21.218;2023-05-10T11:36:27;100995.88;;;17.37;25.63
78990;BME280;68390;52.130;21.218;2023-05-10T11:38:53;101000.56;;;17.37;24.44
78990;BME280;68390;52.130;21.218;2023-05-10T11:41:19;101000.56;;;17.37;25.04
78990;BME280;68390;52.130;21.218;2023-05-10T11:43:53;101000.41;;;17.45;24.62
78990;BME280;68390;52.130;21.218;2023-05-10T11:46:21;100987.72;;;17.57;26.01
78990;BME280;68390;52.130;21.218;2023-05-10T11:48:49;100988.25;;;17.67;25.60
78990;BME280;68390;52.130;21.218;2023-05-10T11:51:20;100978.66;;;17.70;25.24
78990;BME280;68390;52.130;21.218;2023-05-10T11:53:46;100989.59;;;17.78;25.29
78990;BME280;68390;52.130;21.218;2023-05-10T11:56:12;100990.06;;;17.81;25.72
78990;BME280;68390;52.130;21.218;2023-05-10T11:58:39;100990.97;;;17.88;25.69
78990;BME280;68390;52.130;21.218;2023-05-10T12:01:06;100989.97;;;17.96;26.80
78990;BME280;68390;52.130;21.218;2023-05-10T12:03:32;100991.91;;;18.02;26.36
78990;BME280;68390;52.130;21.218;2023-05-10T12:05:59;100980.97;;;17.94;25.28
78990;BME280;68390;52.130;21.218;2023-05-10T12:08:26;100983.28;;;17.90;25.57
78990;BME280;68390;52.130;21.218;2023-05-10T12:10:54;100980.06;;;17.87;27.06
78990;BME280;68390;52.130;21.218;2023-05-10T12:13:28;100978.31;;;17.86;26.47
78990;BME280;68390;52.130;21.218;2023-05-10T12:15:57;100986.91;;;17.84;24.99
78990;BME280;68390;52.130;21.218;2023-05-10T12:18:23;100986.91;;;17.84;25.02
78990;BME280;68390;52.130;21.218;2023-05-10T12:20:52;100985.97;;;17.77;24.29
78990;BME280;68390;52.130;21.218;2023-05-10T12:23:21;100985.09;;;17.77;25.65
78990;BME280;68390;52.130;21.218;2023-05-10T12:25:47;100979.31;;;17.72;25.23
78990;BME280;68390;52.130;21.218;2023-05-10T12:28:12;100976.34;;;17.73;26.70
78990;BME280;68390;52.130;21.218;2023-05-10T12:30:38;100991.50;;;17.71;25.39
78990;BME280;68390;52.130;21.218;2023-05-10T12:33:07;100977.81;;;17.69;25.90
78990;BME280;68390;52.130;21.218;2023-05-10T12:35:49;100973.63;;;17.58;26.00
78990;BME280;68390;52.130;21.218;2023-05-10T12:38:29;100984.06;;;17.56;25.81
78990;BME280;68390;52.130;21.218;2023-05-10T12:41:16;100969.44;;;17.63;26.09
78990;BME280;68390;52.130;21.218;2023-05-10T12:43:42;100978.13;;;17.59;26.18
78990;BME280;68390;52.130;21.218;2023-05-10T12:46:14;100975.53;;;17.58;25.50
78990;BME280;68390;52.130;21.218;2023-05-10T12:48:41;100976.00;;;17.61;27.75
78990;BME280;68390;52.130;21.218;2023-05-10T12:51:07;100964.44;;;17.58;26.34
78990;BME280;68390;52.130;21.218;2023-05-10T12:53:42;100962.28;;;17.53;26.26
78990;BME280;68390;52.130;21.218;2023-05-10T12:56:07;100952.03;;;17.54;26.24
78990;BME280;68390;52.130;21.218;2023-05-10T12:58:34;100955.22;;;17.51;27.06
78990;BME280;68390;52.130;21.218;2023-05-10T13:00:59;100954.47;;;17.64;27.06
78990;BME280;68390;52.130;21.218;2023-05-10T13:03:25;100955.53;;;17.63;27.51
78990;BME280;68390;52.130;21.218;2023-05-10T13:05:51;100952.78;;;17.63;27.68
78990;BME280;68390;52.130;21.218;2023-05-10T13:08:17;100947.00;;;17.64;27.11
78990;BME280;68390;52.130;21.218;2023-05-10T13:10:42;100950.22;;;17.68;27.04
78990;BME280;68390;52.130;21.218;2023-05-10T13:13:08;100951.06;;;17.68;26.56
78990;BME280;68390;52.130;21.218;2023-05-10T13:15:34;100955.72;;;17.61;26.11
78990;BME280;68390;52.130;21.218;2023-05-10T13:17:59;100961.47;;;17.59;27.69